createdAt,value
2022-09-28T00:00:51.831Z,60.40
2022-09-28T00:05:54.723Z,60.40
2022-09-28T00:10:58.245Z,60.50
2022-09-28T00:16:04.408Z,60.60
2022-09-28T00:21:10.024Z,60.70
2022-09-28T00:26:12.895Z,60.70
2022-09-28T00:31:17.925Z,60.70
2022-09-28T00:36:20.926Z,60.90
2022-09-28T00:41:24.591Z,60.90
2022-09-28T00:46:34.001Z,61.00
2022-09-28T00:51:39.552Z,61.00
2022-09-28T00:56:44.002Z,61.10
2022-09-28T01:01:49.333Z,61.10
2022-09-28T01:06:53.125Z,61.10
2022-09-28T01:11:56.165Z,61.20
2022-09-28T01:17:06.698Z,61.20
2022-09-28T01:22:29.730Z,61.50
2022-09-28T01:27:36.554Z,61.40
2022-09-28T01:32:48.882Z,61.40
2022-09-28T01:37:57.907Z,61.40
2022-09-28T01:43:06.904Z,61.50
2022-09-28T01:48:12.515Z,61.40
2022-09-28T01:53:21.513Z,61.30
2022-09-28T01:58:31.190Z,61.40
2022-09-28T02:03:39.379Z,61.50
2022-09-28T02:08:50.348Z,61.40
2022-09-28T02:13:59.808Z,61.40
2022-09-28T02:19:04.261Z,61.50
2022-09-28T02:24:20.630Z,61.30
2022-09-28T02:29:26.263Z,61.50
2022-09-28T02:34:29.490Z,61.60
2022-09-28T02:39:32.641Z,61.50
2022-09-28T02:45:05.902Z,61.60
2022-09-28T02:50:21.952Z,61.80
2022-09-28T02:55:37.435Z,61.90
2022-09-28T03:00:47.482Z,61.80
2022-09-28T03:06:01.474Z,61.90
2022-09-28T03:11:15.764Z,61.80
2022-09-28T03:16:21.589Z,61.70
2022-09-28T03:21:25.937Z,61.70
2022-09-28T03:26:29.081Z,61.60
2022-09-28T03:31:33.616Z,61.70
2022-09-28T03:36:37.754Z,61.70
2022-09-28T03:41:41.099Z,61.70
2022-09-28T03:46:45.560Z,61.70
2022-09-28T03:51:48.812Z,61.70
2022-09-28T03:56:51.907Z,61.70
2022-09-28T04:01:56.252Z,61.70
2022-09-28T04:06:59.538Z,61.70
2022-09-28T04:12:04.494Z,61.60
2022-09-28T04:17:10.353Z,61.60
2022-09-28T04:22:14.255Z,61.60
2022-09-28T04:27:34.580Z,62.30
2022-09-28T04:32:39.912Z,61.60
2022-09-28T04:37:43.115Z,61.60
2022-09-28T04:42:46.076Z,61.70
2022-09-28T04:47:51.472Z,61.70
2022-09-28T04:53:20.973Z,61.80
2022-09-28T04:58:24.259Z,61.60
2022-09-28T05:03:29.131Z,61.70
2022-09-28T05:08:53.858Z,61.70
2022-09-28T05:13:57.052Z,61.70
2022-09-28T05:19:01.995Z,61.60
2022-09-28T05:24:07.557Z,61.60
2022-09-28T05:29:12.915Z,61.60
2022-09-28T05:34:49.466Z,61.60
2022-09-28T05:40:00.503Z,61.90
2022-09-28T05:45:04.325Z,61.70
2022-09-28T05:50:11.760Z,61.80
2022-09-28T05:55:15.508Z,62.60
2022-09-28T06:00:19.006Z,61.80
2022-09-28T06:05:31.184Z,61.90
2022-09-28T06:10:35.265Z,62.00
2022-09-28T06:15:39.554Z,62.10
2022-09-28T06:20:44.573Z,62.00
2022-09-28T06:25:52.010Z,62.10
2022-09-28T06:30:55.135Z,62.10
2022-09-28T06:36:01.542Z,62.20
2022-09-28T06:41:04.626Z,62.40
2022-09-28T06:46:09.718Z,62.30
2022-09-28T06:51:33.354Z,62.20
2022-09-28T06:56:54.626Z,62.20
2022-09-28T07:01:57.858Z,62.20
2022-09-28T07:07:22.196Z,62.60
2022-09-28T07:12:39.795Z,62.30
2022-09-28T07:18:03.905Z,63.00
2022-09-28T07:23:18.483Z,62.30
2022-09-28T07:28:41.490Z,62.30
2022-09-28T07:33:56.587Z,62.30
2022-09-28T07:39:12.192Z,62.30
2022-09-28T07:44:17.429Z,62.40
2022-09-28T07:49:22.947Z,62.40
2022-09-28T07:54:54.143Z,62.30
2022-09-28T08:00:15.653Z,62.60
2022-09-28T08:05:21.936Z,62.60
2022-09-28T08:10:26.399Z,62.60
2022-09-28T08:16:08.953Z,62.90
2022-09-28T08:21:46.572Z,62.80
2022-09-28T08:26:51.528Z,62.90
2022-09-28T08:31:58.305Z,63.10
2022-09-28T08:37:22.104Z,62.90
2022-09-28T08:42:45.992Z,62.80
2022-09-28T08:48:37.837Z,62.90
2022-09-28T08:54:01.403Z,62.90
2022-09-28T08:59:16.045Z,62.90
2022-09-28T09:04:21.209Z,63.00
2022-09-28T09:09:59.798Z,62.70
2022-09-28T09:15:38.768Z,62.50
2022-09-28T09:20:56.659Z,62.30
2022-09-28T09:26:16.499Z,62.10
2022-09-28T09:31:36.128Z,62.10
2022-09-28T09:36:59.646Z,62.50
2022-09-28T09:42:49.047Z,62.90
2022-09-28T09:48:20.625Z,63.00
2022-09-28T09:53:28.789Z,62.90
2022-09-28T09:58:36.613Z,63.10
2022-09-28T10:04:21.779Z,63.00
2022-09-28T10:09:29.968Z,62.90
2022-09-28T10:14:46.307Z,62.70
2022-09-28T10:19:51.486Z,62.50
2022-09-28T10:25:15.320Z,62.50
2022-09-28T10:30:22.464Z,62.40
2022-09-28T10:35:30.476Z,62.20
2022-09-28T10:40:44.244Z,62.30
2022-09-28T10:45:48.443Z,62.30
2022-09-28T10:51:05.827Z,62.40
2022-09-28T10:56:21.409Z,62.20
2022-09-28T11:01:34.454Z,62.10
2022-09-28T11:12:07.449Z,62.10
2022-09-28T11:17:16.967Z,62.70
2022-09-28T11:22:26.079Z,62.60
2022-09-28T11:27:33.559Z,62.10
2022-09-28T11:32:44.076Z,62.00
2022-09-28T11:38:15.854Z,61.40
2022-09-28T11:43:52.874Z,61.40
2022-09-28T11:48:59.029Z,61.40
2022-09-28T11:54:14.224Z,61.60
2022-09-28T11:59:23.394Z,61.30
2022-09-28T12:04:34.918Z,61.50
2022-09-28T12:09:46.512Z,61.40
2022-09-28T12:15:00.818Z,61.70
2022-09-28T12:20:13.138Z,61.90
2022-09-28T12:25:22.078Z,61.40
2022-09-28T12:30:26.473Z,61.30
2022-09-28T12:35:40.507Z,61.20
2022-09-28T12:40:53.781Z,60.40
2022-09-28T12:46:29.532Z,60.40
2022-09-28T12:51:43.626Z,60.90
2022-09-28T12:57:00.415Z,60.90
2022-09-28T13:02:27.507Z,60.80
2022-09-28T13:07:38.117Z,60.60
2022-09-28T13:12:55.757Z,60.50
2022-09-28T13:18:09.126Z,60.00
2022-09-28T13:23:20.589Z,59.80
2022-09-28T13:28:27.167Z,59.50
2022-09-28T13:33:36.732Z,60.10
2022-09-28T13:38:50.266Z,60.30
2022-09-28T13:44:12.977Z,60.10
2022-09-28T13:49:23.918Z,60.30
2022-09-28T13:54:46.204Z,61.30
2022-09-28T14:00:10.353Z,60.00
2022-09-28T14:05:47.806Z,59.80
2022-09-28T14:10:52.730Z,60.00
2022-09-28T14:16:21.556Z,60.50
2022-09-28T14:21:58.027Z,59.60
2022-09-28T14:27:28.381Z,59.20
2022-09-28T14:32:37.452Z,59.30
2022-09-28T14:38:00.322Z,59.20
2022-09-28T14:43:26.898Z,60.00
2022-09-28T14:48:48.385Z,59.90
2022-09-28T14:53:52.479Z,59.60
2022-09-28T14:58:58.851Z,59.40
2022-09-28T15:04:05.426Z,58.90
2022-09-28T15:09:29.569Z,58.60
2022-09-28T15:14:45.386Z,58.20
2022-09-28T15:19:58.233Z,58.50
2022-09-28T15:25:03.186Z,58.50
2022-09-28T15:30:22.391Z,59.40
2022-09-28T15:35:28.387Z,58.40
2022-09-28T15:40:34.744Z,58.70
2022-09-28T15:45:40.547Z,58.80
2022-09-28T15:50:58.984Z,58.90
2022-09-28T15:56:09.844Z,58.60
2022-09-28T16:01:35.832Z,58.70
2022-09-28T16:06:41.787Z,59.00
2022-09-28T16:11:45.117Z,59.20
2022-09-28T16:16:49.323Z,59.30
2022-09-28T16:21:55.807Z,59.30
2022-09-28T16:27:01.551Z,59.30
2022-09-28T16:32:35.036Z,59.20
2022-09-28T16:37:42.532Z,59.20
2022-09-28T16:42:49.033Z,59.20
2022-09-28T16:47:53.483Z,59.20
2022-09-28T16:53:24.715Z,59.20
2022-09-28T16:58:28.137Z,59.30
2022-09-28T17:03:31.217Z,59.30
2022-09-28T17:08:36.034Z,59.10
2022-09-28T17:13:38.948Z,59.30
2022-09-28T17:18:42.129Z,59.20
2022-09-28T17:23:47.220Z,59.90
2022-09-28T17:28:50.211Z,59.30
2022-09-28T17:33:54.423Z,59.30
2022-09-28T17:38:58.655Z,59.70
2022-09-28T17:44:02.975Z,59.50
2022-09-28T17:49:08.364Z,59.50
2022-09-28T17:54:13.654Z,59.60
2022-09-28T17:59:18.915Z,59.60
2022-09-28T18:04:50.136Z,59.60
2022-09-28T18:09:46.020Z,59.50
2022-09-28T18:14:48.918Z,59.60
2022-09-28T18:19:51.799Z,59.70
2022-09-28T18:24:56.083Z,59.80
2022-09-28T18:29:59.132Z,59.80
2022-09-28T18:35:02.030Z,59.70
2022-09-28T18:40:07.448Z,59.70
2022-09-28T18:45:12.011Z,59.70
2022-09-28T18:50:15.412Z,59.60
2022-09-28T18:55:19.982Z,59.60
2022-09-28T19:00:22.931Z,59.60
2022-09-28T19:05:27.420Z,59.40
2022-09-28T19:10:31.655Z,59.40
2022-09-28T19:15:34.639Z,59.40
2022-09-28T19:20:37.615Z,59.40
2022-09-28T19:25:41.941Z,59.50
2022-09-28T19:30:44.989Z,59.60
2022-09-28T19:35:56.326Z,59.70
2022-09-28T19:41:01.172Z,59.70
2022-09-28T19:46:05.694Z,59.50
2022-09-28T19:51:08.771Z,59.40
2022-09-28T19:56:13.022Z,59.40
2022-09-28T20:01:16.044Z,59.60
2022-09-28T20:06:19.003Z,59.50
2022-09-28T20:11:23.444Z,59.80
2022-09-28T20:16:28.772Z,59.80
2022-09-28T20:21:31.740Z,59.80
2022-09-28T20:26:37.766Z,59.80
2022-09-28T20:31:42.602Z,59.70
2022-09-28T20:36:45.538Z,59.70
2022-09-28T20:41:49.819Z,59.70
2022-09-28T20:46:52.847Z,59.80
2022-09-28T20:51:55.890Z,59.90
2022-09-28T20:57:00.188Z,59.90
2022-09-28T21:02:03.272Z,59.80
2022-09-28T21:07:06.322Z,59.90
2022-09-28T21:12:10.651Z,59.90
2022-09-28T21:17:13.569Z,59.90
2022-09-28T21:22:16.503Z,59.80
2022-09-28T21:27:20.793Z,59.80
2022-09-28T21:32:24.183Z,59.70
2022-09-28T21:37:27.100Z,59.80
2022-09-28T21:42:31.378Z,59.90
2022-09-28T21:47:34.292Z,59.80
2022-09-28T21:52:37.284Z,59.80
2022-09-28T21:57:41.648Z,59.70
2022-09-28T22:02:44.955Z,59.70
2022-09-28T22:07:48.020Z,59.50
2022-09-28T22:12:52.302Z,59.50
2022-09-28T22:17:55.283Z,59.70
2022-09-28T22:22:58.212Z,59.90
2022-09-28T22:28:02.885Z,59.60
2022-09-28T22:33:05.830Z,59.70
2022-09-28T22:38:08.788Z,59.70
2022-09-28T22:43:13.092Z,59.70
2022-09-28T22:48:16.031Z,59.80
2022-09-28T22:53:19.264Z,59.70
2022-09-28T22:58:23.609Z,59.70
2022-09-28T23:03:26.607Z,59.70
2022-09-28T23:08:29.856Z,59.70
2022-09-28T23:13:35.054Z,59.80
2022-09-28T23:18:40.800Z,59.90
2022-09-28T23:23:44.137Z,59.90
2022-09-28T23:28:48.505Z,60.00
2022-09-28T23:33:52.210Z,60.10
2022-09-28T23:38:55.446Z,60.00
2022-09-28T23:43:59.733Z,60.20
2022-09-28T23:49:03.016Z,60.20
2022-09-28T23:54:06.696Z,60.20
2022-09-28T23:59:11.003Z,60.10
